createdAt,value
2018-08-25T00:00:08.933Z,15.68
2018-08-25T00:01:14.932Z,15.83
2018-08-25T00:02:21.214Z,15.79
2018-08-25T00:03:27.195Z,15.83
2018-08-25T00:04:33.573Z,15.81
2018-08-25T00:05:39.638Z,15.90
2018-08-25T00:06:45.951Z,16.00
2018-08-25T00:07:52.061Z,16.08
2018-08-25T00:08:58.378Z,16.09
2018-08-25T00:10:03.752Z,16.16
2018-08-25T00:11:09.794Z,16.16
2018-08-25T00:12:16.116Z,16.18
2018-08-25T00:13:22.056Z,16.08
2018-08-25T00:14:28.070Z,15.85
2018-08-25T00:15:34.538Z,15.68
2018-08-25T00:16:41.741Z,15.58
2018-08-25T00:17:48.078Z,15.67
2018-08-25T00:18:54.367Z,15.84
2018-08-25T00:20:00.828Z,15.71
2018-08-25T00:21:07.018Z,15.62
2018-08-25T00:22:13.286Z,15.53
2018-08-25T00:23:19.297Z,15.63
2018-08-25T00:24:25.522Z,15.85
2018-08-25T00:25:32.075Z,15.75
2018-08-25T00:26:38.934Z,15.92
2018-08-25T00:27:45.169Z,15.92
2018-08-25T00:28:52.138Z,15.85
2018-08-25T00:29:58.401Z,15.70
2018-08-25T00:31:04.505Z,15.63
2018-08-25T00:32:10.960Z,15.74
2018-08-25T00:33:17.257Z,15.70
2018-08-25T00:34:23.584Z,15.65
2018-08-25T00:35:29.892Z,15.67
2018-08-25T00:36:36.964Z,15.73
2018-08-25T00:37:43.221Z,15.69
2018-08-25T00:38:49.735Z,15.86
2018-08-25T00:39:56.188Z,16.07
2018-08-25T00:41:02.644Z,16.08
2018-08-25T00:42:08.435Z,16.15
2018-08-25T00:43:14.488Z,15.94
2018-08-25T00:44:20.867Z,15.87
2018-08-25T00:45:26.874Z,15.85
2018-08-25T00:46:32.956Z,15.79
2018-08-25T00:47:39.239Z,15.80
2018-08-25T00:48:45.019Z,15.87
2018-08-25T00:49:51.140Z,16.00
2018-08-25T00:50:57.217Z,16.05
2018-08-25T00:52:03.206Z,16.06
2018-08-25T00:53:09.581Z,15.95
2018-08-25T00:54:15.869Z,15.96
2018-08-25T00:55:21.842Z,16.06
2018-08-25T00:56:28.146Z,16.00
2018-08-25T00:57:34.486Z,15.98
2018-08-25T00:58:40.470Z,16.12
2018-08-25T00:59:46.940Z,16.07
2018-08-25T01:00:52.844Z,16.16
2018-08-25T01:02:00.417Z,16.13
2018-08-25T01:03:06.308Z,16.01
2018-08-25T01:04:12.656Z,16.01
2018-08-25T01:05:18.284Z,15.88
2018-08-25T01:06:24.301Z,15.96
2018-08-25T01:07:30.679Z,15.87
2018-08-25T01:08:37.024Z,15.99
2018-08-25T01:09:42.950Z,16.00
2018-08-25T01:10:49.231Z,16.04
2018-08-25T01:11:55.535Z,16.11
2018-08-25T01:13:01.544Z,16.15
2018-08-25T01:14:07.254Z,15.98
2018-08-25T01:15:13.667Z,16.00
2018-08-25T01:16:19.936Z,15.81
2018-08-25T01:17:26.252Z,15.61
2018-08-25T01:18:32.972Z,15.51
2018-08-25T01:19:39.245Z,15.44
2018-08-25T01:20:44.688Z,15.50
2018-08-25T01:21:50.976Z,15.52
2018-08-25T01:22:57.087Z,15.72
2018-08-25T01:24:03.532Z,15.87
2018-08-25T01:25:09.635Z,15.97
2018-08-25T01:26:15.595Z,15.86
2018-08-25T01:27:22.044Z,15.94
2018-08-25T01:28:28.356Z,16.01
2018-08-25T01:29:34.722Z,15.80
2018-08-25T01:30:40.765Z,15.72
2018-08-25T01:31:47.075Z,15.53
2018-08-25T01:32:53.415Z,15.39
2018-08-25T01:33:59.715Z,15.43
2018-08-25T01:35:05.708Z,15.59
2018-08-25T01:36:12.021Z,15.75
2018-08-25T01:37:18.328Z,15.94
2018-08-25T01:38:26.291Z,15.96
2018-08-25T01:39:32.478Z,15.87
2018-08-25T01:40:38.634Z,15.80
2018-08-25T01:41:44.940Z,15.77
2018-08-25T01:42:51.243Z,15.69
2018-08-25T01:44:02.690Z,15.57
2018-08-25T01:45:09.001Z,15.43
2018-08-25T01:46:16.256Z,15.31
2018-08-25T01:47:22.412Z,15.27
2018-08-25T01:48:28.764Z,15.33
2018-08-25T01:49:35.016Z,15.41
2018-08-25T01:50:41.455Z,15.38
2018-08-25T01:51:47.752Z,15.43
2018-08-25T01:52:54.088Z,15.52
2018-08-25T01:54:00.408Z,15.58
2018-08-25T01:55:06.170Z,15.52
2018-08-25T01:56:12.636Z,15.58
2018-08-25T01:57:18.917Z,15.72
2018-08-25T01:58:24.883Z,15.88
2018-08-25T01:59:30.948Z,15.97
2018-08-25T02:00:37.282Z,15.95
2018-08-25T02:01:43.536Z,15.98
2018-08-25T02:02:50.138Z,15.92
2018-08-25T02:03:56.669Z,15.82
2018-08-25T02:05:03.019Z,15.82
2018-08-25T02:06:09.261Z,15.77
2018-08-25T02:07:15.704Z,15.78
2018-08-25T02:08:22.035Z,15.67
2018-08-25T02:09:28.332Z,15.49
2018-08-25T02:10:34.687Z,15.43
2018-08-25T02:11:41.484Z,15.28
2018-08-25T02:12:47.807Z,15.23
2018-08-25T02:13:54.112Z,15.32
2018-08-25T02:15:00.430Z,15.28
2018-08-25T02:16:06.363Z,15.35
2018-08-25T02:17:12.971Z,15.17
2018-08-25T02:18:19.000Z,15.09
2018-08-25T02:19:25.290Z,15.09
2018-08-25T02:20:31.605Z,15.01
2018-08-25T02:21:37.916Z,14.97
2018-08-25T02:22:44.899Z,14.92
2018-08-25T02:23:51.264Z,15.15
2018-08-25T02:24:57.540Z,15.19
2018-08-25T02:26:03.843Z,15.11
2018-08-25T02:27:10.729Z,14.95
2018-08-25T02:28:17.085Z,14.66
2018-08-25T02:29:23.595Z,14.47
2018-08-25T02:30:29.931Z,14.42
2018-08-25T02:31:36.218Z,14.45
2018-08-25T02:32:42.519Z,14.57
2018-08-25T02:33:48.885Z,14.74
2018-08-25T02:34:55.142Z,14.90
2018-08-25T02:36:02.032Z,14.97
2018-08-25T02:37:08.636Z,14.91
2018-08-25T02:38:14.848Z,14.99
2018-08-25T02:39:20.770Z,15.24
2018-08-25T02:40:26.593Z,15.42
2018-08-25T02:41:32.971Z,15.44
2018-08-25T02:42:38.727Z,15.37
2018-08-25T02:43:45.082Z,15.23
2018-08-25T02:44:51.320Z,14.98
2018-08-25T02:45:59.537Z,14.76
2018-08-25T02:47:06.287Z,14.53
2018-08-25T02:48:12.804Z,14.45
2018-08-25T02:49:19.055Z,14.38
2018-08-25T02:50:25.791Z,14.49
2018-08-25T02:51:31.879Z,14.55
2018-08-25T02:52:38.199Z,14.58
2018-08-25T02:53:44.152Z,14.59
2018-08-25T02:54:50.443Z,14.59
2018-08-25T02:55:57.307Z,14.63
2018-08-25T02:57:03.532Z,14.68
2018-08-25T02:58:09.948Z,14.70
2018-08-25T02:59:16.267Z,14.74
2018-08-25T03:00:22.584Z,14.82
2018-08-25T03:01:28.935Z,14.86
2018-08-25T03:02:35.212Z,14.88
2018-08-25T03:03:41.519Z,14.76
2018-08-25T03:04:47.863Z,14.65
2018-08-25T03:05:54.191Z,14.51
2018-08-25T03:07:00.475Z,14.41
2018-08-25T03:08:06.748Z,14.31
2018-08-25T03:09:13.013Z,14.33
2018-08-25T03:10:19.264Z,14.28
2018-08-25T03:11:25.507Z,14.31
2018-08-25T03:12:31.831Z,14.39
2018-08-25T03:13:38.304Z,14.45
2018-08-25T03:14:45.837Z,14.50
2018-08-25T03:15:51.891Z,14.52
2018-08-25T03:16:58.275Z,14.52
2018-08-25T03:18:04.597Z,14.58
2018-08-25T03:19:10.569Z,14.55
2018-08-25T03:20:16.823Z,14.52
2018-08-25T03:21:23.165Z,14.53
2018-08-25T03:22:29.435Z,14.55
2018-08-25T03:23:35.688Z,14.58
2018-08-25T03:24:41.897Z,14.51
2018-08-25T03:25:48.291Z,14.49
2018-08-25T03:26:55.267Z,14.52
2018-08-25T03:28:01.623Z,14.51
2018-08-25T03:29:07.907Z,14.44
2018-08-25T03:30:14.228Z,14.44
2018-08-25T03:31:20.641Z,14.41
2018-08-25T03:32:26.965Z,14.42
2018-08-25T03:33:33.964Z,14.39
2018-08-25T03:34:40.344Z,14.38
2018-08-25T03:35:46.615Z,14.42
2018-08-25T03:36:53.198Z,14.35
2018-08-25T03:37:59.434Z,14.27
2018-08-25T03:39:05.056Z,14.41
2018-08-25T03:40:11.304Z,14.58
2018-08-25T03:41:17.601Z,14.73
2018-08-25T03:42:24.010Z,14.79
2018-08-25T03:43:30.042Z,14.77
2018-08-25T03:44:36.876Z,14.55
2018-08-25T03:45:43.099Z,14.23
2018-08-25T03:46:49.459Z,14.09
2018-08-25T03:47:55.776Z,14.06
2018-08-25T03:49:01.845Z,14.09
2018-08-25T03:50:07.833Z,14.12
2018-08-25T03:51:14.301Z,14.12
2018-08-25T03:52:20.825Z,14.08
2018-08-25T03:53:26.987Z,14.09
2018-08-25T03:54:33.342Z,14.10
2018-08-25T03:55:39.631Z,14.12
2018-08-25T03:56:45.956Z,14.12
2018-08-25T03:57:52.347Z,14.09
2018-08-25T03:58:59.835Z,14.14
2018-08-25T04:00:05.773Z,14.17
2018-08-25T04:01:12.271Z,14.16
2018-08-25T04:02:18.526Z,14.15
2018-08-25T04:03:24.820Z,14.16
2018-08-25T04:04:31.165Z,14.22
2018-08-25T04:05:37.464Z,14.20
2018-08-25T04:06:43.796Z,14.27
2018-08-25T04:07:50.081Z,14.44
2018-08-25T04:08:56.388Z,14.37
2018-08-25T04:10:01.994Z,14.31
2018-08-25T04:11:08.732Z,14.30
2018-08-25T04:12:15.253Z,14.34
2018-08-25T04:13:21.542Z,14.33
2018-08-25T04:14:27.836Z,14.34
2018-08-25T04:15:34.176Z,14.39
2018-08-25T04:16:40.686Z,14.44
2018-08-25T04:17:47.089Z,14.48
2018-08-25T04:18:53.410Z,14.54
2018-08-25T04:19:59.407Z,14.47
2018-08-25T04:21:05.740Z,14.34
2018-08-25T04:22:12.291Z,14.33
2018-08-25T04:23:18.644Z,14.34
2018-08-25T04:24:24.993Z,14.37
2018-08-25T04:25:31.280Z,14.39
2018-08-25T04:26:37.930Z,14.36
2018-08-25T04:27:44.207Z,14.31
2018-08-25T04:28:50.563Z,14.34
2018-08-25T04:29:56.990Z,14.37
2018-08-25T04:31:03.365Z,14.32
2018-08-25T04:32:09.731Z,14.29
2018-08-25T04:33:16.029Z,14.28
2018-08-25T04:34:22.524Z,14.31
2018-08-25T04:35:28.839Z,14.40
2018-08-25T04:36:34.915Z,14.41
2018-08-25T04:37:41.203Z,14.37
2018-08-25T04:38:47.549Z,14.39
2018-08-25T04:39:53.836Z,14.55
2018-08-25T04:41:00.371Z,14.60
2018-08-25T04:42:06.701Z,14.56
2018-08-25T04:43:13.531Z,14.55
2018-08-25T04:44:19.796Z,14.58
2018-08-25T04:45:26.098Z,14.55
2018-08-25T04:46:32.423Z,14.49
2018-08-25T04:47:38.808Z,14.49
2018-08-25T04:48:45.048Z,14.50
2018-08-25T04:49:51.603Z,14.50
2018-08-25T04:50:57.871Z,14.66
2018-08-25T04:52:03.983Z,14.80
2018-08-25T04:53:11.068Z,14.81
2018-08-25T04:54:17.204Z,14.80
2018-08-25T04:55:23.579Z,14.77
2018-08-25T04:56:29.642Z,14.70
2018-08-25T04:57:35.855Z,14.67
2018-08-25T04:58:42.315Z,14.51
2018-08-25T04:59:48.613Z,14.45
2018-08-25T05:00:55.860Z,14.35
2018-08-25T05:02:02.234Z,14.40
2018-08-25T05:03:08.792Z,14.51
2018-08-25T05:04:15.088Z,14.49
2018-08-25T05:05:21.366Z,14.52
2018-08-25T05:06:27.737Z,14.55
2018-08-25T05:07:34.027Z,14.45
2018-08-25T05:08:40.585Z,14.35
2018-08-25T05:09:46.719Z,14.30
2018-08-25T05:10:53.039Z,14.31
2018-08-25T05:11:59.384Z,14.33
2018-08-25T05:13:05.685Z,14.31
2018-08-25T05:14:11.981Z,14.44
2018-08-25T05:15:18.317Z,14.49
2018-08-25T05:16:24.645Z,14.52
2018-08-25T05:17:30.744Z,14.56
2018-08-25T05:18:37.259Z,14.61
2018-08-25T05:19:43.666Z,14.63
2018-08-25T05:20:49.945Z,14.69
2018-08-25T05:21:56.312Z,14.67
2018-08-25T05:23:02.913Z,14.66
2018-08-25T05:24:09.224Z,14.60
2018-08-25T05:25:15.527Z,14.64
2018-08-25T05:26:21.816Z,14.63
2018-08-25T05:27:28.147Z,14.67
2018-08-25T05:28:34.459Z,14.93
2018-08-25T05:29:40.739Z,15.13
2018-08-25T05:30:47.069Z,15.31
2018-08-25T05:31:53.410Z,15.29
2018-08-25T05:32:59.698Z,15.40
2018-08-25T05:34:06.003Z,15.39
2018-08-25T05:35:12.302Z,15.26
2018-08-25T05:36:18.621Z,14.99
2018-08-25T05:37:24.967Z,14.89
2018-08-25T05:38:31.801Z,14.83
2018-08-25T05:39:37.746Z,14.86
2018-08-25T05:40:44.075Z,15.21
2018-08-25T05:41:50.396Z,15.45
2018-08-25T05:42:56.712Z,15.46
2018-08-25T05:44:03.062Z,15.58
2018-08-25T05:45:09.657Z,15.55
2018-08-25T05:46:15.927Z,15.68
2018-08-25T05:47:21.759Z,15.74
2018-08-25T05:48:28.194Z,15.72
2018-08-25T05:49:35.845Z,15.59
2018-08-25T05:50:43.597Z,15.36
2018-08-25T05:51:52.293Z,15.27
2018-08-25T05:53:01.037Z,15.45
2018-08-25T05:54:07.919Z,15.61
2018-08-25T05:55:14.234Z,15.53
2018-08-25T05:56:21.705Z,15.66
2018-08-25T05:57:29.947Z,15.64
2018-08-25T05:58:37.457Z,15.61
2018-08-25T05:59:45.065Z,15.72
2018-08-25T06:00:52.472Z,15.70
2018-08-25T06:01:59.869Z,15.70
2018-08-25T06:03:06.083Z,15.78
2018-08-25T06:04:12.400Z,15.58
2018-08-25T06:05:18.706Z,15.72
2018-08-25T06:06:25.043Z,15.72
2018-08-25T06:07:31.558Z,15.92
2018-08-25T06:08:37.879Z,15.96
2018-08-25T06:09:44.119Z,15.79
2018-08-25T06:10:51.291Z,15.76
2018-08-25T06:11:58.718Z,15.82
2018-08-25T06:13:05.629Z,16.00
2018-08-25T06:14:14.558Z,16.01
2018-08-25T06:15:22.087Z,16.20
2018-08-25T06:16:28.792Z,16.29
2018-08-25T06:17:37.887Z,16.29
2018-08-25T06:18:44.407Z,16.38
2018-08-25T06:19:51.439Z,16.37
2018-08-25T06:20:58.411Z,16.46
2018-08-25T06:22:04.432Z,16.45
2018-08-25T06:23:12.699Z,16.35
2018-08-25T06:24:19.375Z,16.31
2018-08-25T06:25:27.400Z,16.25
2018-08-25T06:26:34.099Z,16.31
2018-08-25T06:27:41.008Z,16.26
2018-08-25T06:28:47.260Z,16.47
2018-08-25T06:29:55.086Z,16.58
2018-08-25T06:31:02.112Z,16.49
2018-08-25T06:32:08.809Z,16.56
2018-08-25T06:33:15.503Z,16.40
2018-08-25T06:34:23.160Z,16.39
2018-08-25T06:35:30.005Z,16.53
2018-08-25T06:36:37.132Z,16.51
2018-08-25T06:37:44.869Z,16.48
2018-08-25T06:38:50.804Z,16.66
2018-08-25T06:39:57.852Z,16.66
2018-08-25T06:41:04.277Z,16.82
2018-08-25T06:42:12.378Z,17.00
2018-08-25T06:43:20.259Z,17.02
2018-08-25T06:44:27.286Z,16.89
2018-08-25T06:45:35.445Z,16.98
2018-08-25T06:46:42.734Z,16.98
2018-08-25T06:47:49.927Z,17.22
2018-08-25T06:48:56.525Z,17.20
2018-08-25T06:50:04.175Z,17.10
2018-08-25T06:51:11.300Z,17.17
2018-08-25T06:52:18.551Z,17.33
2018-08-25T06:53:25.606Z,17.44
2018-08-25T06:54:32.798Z,17.52
2018-08-25T06:55:39.719Z,17.58
2018-08-25T06:56:47.289Z,17.61
2018-08-25T06:57:53.762Z,17.55
2018-08-25T06:59:00.702Z,17.27
2018-08-25T07:00:09.158Z,17.33
2018-08-25T07:01:16.784Z,17.24
2018-08-25T07:02:23.735Z,17.21
2018-08-25T07:03:30.020Z,17.34
2018-08-25T07:04:36.936Z,17.55
2018-08-25T07:05:43.647Z,17.64
2018-08-25T07:06:51.429Z,17.67
2018-08-25T07:07:58.568Z,17.58
2018-08-25T07:09:05.352Z,17.61
2018-08-25T07:10:11.652Z,17.49
2018-08-25T07:11:17.964Z,17.66
2018-08-25T07:12:24.737Z,17.83
2018-08-25T07:13:31.620Z,17.83
2018-08-25T07:14:38.732Z,17.79
2018-08-25T07:15:45.475Z,17.91
2018-08-25T07:16:51.925Z,17.87
2018-08-25T07:18:00.366Z,17.90
2018-08-25T07:19:07.584Z,17.88
2018-08-25T07:20:14.448Z,17.88
2018-08-25T07:21:21.541Z,17.97
2018-08-25T07:22:27.928Z,18.10
2018-08-25T07:23:35.382Z,17.89
2018-08-25T07:24:43.185Z,17.98
2018-08-25T07:25:50.640Z,18.01
2018-08-25T07:26:57.626Z,18.03
2018-08-25T07:28:04.759Z,18.16
2018-08-25T07:29:13.027Z,18.20
2018-08-25T07:30:19.964Z,18.26
2018-08-25T07:31:26.983Z,18.23
2018-08-25T07:32:33.378Z,18.27
2018-08-25T07:33:39.727Z,18.30
2018-08-25T07:34:46.536Z,18.29
2018-08-25T07:35:52.947Z,18.24
2018-08-25T07:36:59.916Z,18.46
2018-08-25T07:38:07.151Z,18.52
2018-08-25T07:39:13.643Z,18.54
2018-08-25T07:40:20.584Z,18.54
2018-08-25T07:41:26.937Z,18.54
2018-08-25T07:42:35.952Z,18.57
2018-08-25T07:43:42.871Z,18.62
2018-08-25T07:44:49.688Z,18.72
2018-08-25T07:45:56.724Z,18.78
2018-08-25T07:47:03.333Z,18.76
2018-08-25T07:48:10.364Z,18.76
2018-08-25T07:49:17.925Z,18.75
2018-08-25T07:50:24.930Z,18.83
2018-08-25T07:51:31.332Z,18.80
2018-08-25T07:52:37.635Z,18.66
2018-08-25T07:53:44.358Z,18.58
2018-08-25T07:54:51.840Z,18.61
2018-08-25T07:55:58.776Z,18.73
2018-08-25T07:57:05.994Z,18.82
2018-08-25T07:58:13.192Z,18.90
2018-08-25T07:59:19.906Z,18.93
2018-08-25T08:00:27.239Z,18.99
2018-08-25T08:01:34.088Z,19.04
2018-08-25T08:02:43.340Z,19.10
2018-08-25T08:03:49.792Z,18.97
2018-08-25T08:04:56.504Z,19.15
2018-08-25T08:06:03.119Z,19.25
2018-08-25T08:07:11.276Z,19.33
2018-08-25T08:08:18.031Z,19.37
2018-08-25T08:09:25.208Z,19.32
2018-08-25T08:10:32.573Z,19.36
2018-08-25T08:11:38.846Z,19.50
2018-08-25T08:12:45.163Z,19.49
2018-08-25T08:13:51.173Z,19.50
2018-08-25T08:14:57.159Z,19.58
2018-08-25T08:16:03.591Z,19.48
2018-08-25T08:17:09.875Z,19.45
2018-08-25T08:18:16.220Z,19.38
2018-08-25T08:19:22.226Z,19.23
2018-08-25T08:20:28.512Z,19.33
2018-08-25T08:21:34.810Z,19.36
2018-08-25T08:22:41.231Z,19.46
2018-08-25T08:23:47.507Z,19.47
2018-08-25T08:24:54.654Z,19.29
2018-08-25T08:26:01.396Z,19.39
2018-08-25T08:27:07.865Z,19.39
2018-08-25T08:28:14.149Z,19.44
2018-08-25T08:29:20.569Z,19.57
2018-08-25T08:30:26.831Z,19.36
2018-08-25T08:31:33.046Z,19.48
2018-08-25T08:32:39.398Z,19.61
2018-08-25T08:33:45.705Z,19.82
2018-08-25T08:34:51.710Z,19.89
2018-08-25T08:35:58.051Z,20.03
2018-08-25T08:37:04.310Z,19.95
2018-08-25T08:38:09.732Z,19.91
2018-08-25T08:39:15.721Z,20.10
2018-08-25T08:40:22.124Z,20.03
2018-08-25T08:41:28.540Z,20.04
2018-08-25T08:42:34.831Z,20.09
2018-08-25T08:43:40.883Z,20.03
2018-08-25T08:44:47.302Z,20.14
2018-08-25T08:45:53.405Z,20.16
2018-08-25T08:46:59.534Z,20.12
2018-08-25T08:48:05.895Z,20.13
2018-08-25T08:49:13.789Z,20.04
2018-08-25T08:50:20.088Z,19.95
2018-08-25T08:51:27.049Z,19.83
2018-08-25T08:52:33.231Z,19.66
2018-08-25T08:53:39.523Z,19.31
2018-08-25T08:54:45.831Z,19.28
2018-08-25T08:55:52.131Z,19.45
2018-08-25T08:56:58.464Z,19.44
2018-08-25T08:58:04.818Z,19.59
2018-08-25T08:59:11.185Z,19.66
2018-08-25T09:00:17.164Z,19.76
2018-08-25T09:01:23.575Z,19.73
2018-08-25T09:02:29.718Z,19.63
2018-08-25T09:03:36.026Z,19.66
2018-08-25T09:04:42.333Z,19.80
2018-08-25T09:05:48.951Z,19.82
2018-08-25T09:06:55.267Z,19.70
2018-08-25T09:08:01.690Z,19.76
2018-08-25T09:09:07.658Z,19.88
2018-08-25T09:10:14.008Z,19.89
2018-08-25T09:11:20.354Z,20.04
2018-08-25T09:12:26.691Z,20.18
2018-08-25T09:13:33.035Z,20.10
2018-08-25T09:14:39.366Z,20.07
2018-08-25T09:15:45.669Z,19.91
2018-08-25T09:16:51.981Z,19.83
2018-08-25T09:17:58.063Z,19.74
2018-08-25T09:19:04.026Z,19.82
2018-08-25T09:20:10.531Z,19.85
2018-08-25T09:21:17.540Z,19.74
2018-08-25T09:22:23.845Z,19.80
2018-08-25T09:23:30.158Z,19.88
2018-08-25T09:24:37.061Z,19.92
2018-08-25T09:25:43.263Z,19.84
2018-08-25T09:26:49.613Z,19.69
2018-08-25T09:27:55.904Z,19.80
2018-08-25T09:29:02.228Z,19.75
2018-08-25T09:30:08.325Z,19.83
2018-08-25T09:31:15.214Z,19.63
2018-08-25T09:32:22.059Z,19.71
2018-08-25T09:33:28.299Z,19.75
2018-08-25T09:34:34.633Z,19.70
2018-08-25T09:35:40.925Z,19.72
2018-08-25T09:36:47.453Z,19.78
2018-08-25T09:37:53.542Z,19.79
2018-08-25T09:38:59.965Z,19.78
2018-08-25T09:40:05.717Z,19.69
2018-08-25T09:41:12.039Z,19.54
2018-08-25T09:42:18.235Z,19.61
2018-08-25T09:43:25.294Z,19.60
2018-08-25T09:44:31.652Z,19.71
2018-08-25T09:45:38.037Z,19.73
2018-08-25T09:46:44.312Z,19.71
2018-08-25T09:47:50.644Z,19.55
2018-08-25T09:48:56.946Z,19.62
2018-08-25T09:50:03.333Z,19.64
2018-08-25T09:51:10.169Z,19.68
2018-08-25T09:52:16.383Z,19.85
2018-08-25T09:53:22.729Z,19.85
2018-08-25T09:54:29.049Z,19.87
2018-08-25T09:55:35.375Z,19.97
2018-08-25T09:56:41.677Z,19.88
2018-08-25T09:57:47.971Z,19.79
2018-08-25T09:58:54.345Z,19.68
2018-08-25T10:00:00.813Z,19.76
2018-08-25T10:01:06.881Z,19.84
2018-08-25T10:02:13.092Z,19.77
2018-08-25T10:03:19.721Z,19.78
2018-08-25T10:04:26.566Z,19.76
2018-08-25T10:05:33.675Z,19.72
2018-08-25T10:06:39.887Z,19.76
2018-08-25T10:07:46.823Z,19.86
2018-08-25T10:08:53.354Z,19.82
2018-08-25T10:09:59.745Z,19.93
2018-08-25T10:11:05.432Z,19.82
2018-08-25T10:12:11.722Z,19.96
2018-08-25T10:13:17.996Z,19.83
2018-08-25T10:14:24.318Z,19.93
2018-08-25T10:15:30.623Z,19.94
2018-08-25T10:16:37.049Z,19.93
2018-08-25T10:17:43.608Z,19.97
2018-08-25T10:18:49.914Z,19.92
2018-08-25T10:19:56.240Z,19.87
2018-08-25T10:21:02.581Z,19.94
2018-08-25T10:22:09.028Z,20.01
2018-08-25T10:23:15.275Z,19.96
2018-08-25T10:24:21.944Z,19.95
2018-08-25T10:25:28.253Z,19.78
2018-08-25T10:26:34.552Z,19.84
2018-08-25T10:27:40.654Z,19.79
2018-08-25T10:28:46.945Z,19.80
2018-08-25T10:29:53.256Z,19.78
2018-08-25T10:30:59.603Z,19.66
2018-08-25T10:32:06.285Z,19.55
2018-08-25T10:33:12.658Z,19.70
2018-08-25T10:34:19.459Z,19.64
2018-08-25T10:35:25.863Z,19.73
2018-08-25T10:36:32.144Z,19.56
2018-08-25T10:37:38.555Z,19.52
2018-08-25T10:38:44.832Z,19.42
2018-08-25T10:39:51.143Z,19.37
2018-08-25T10:40:57.355Z,19.22
2018-08-25T10:42:03.645Z,19.22
2018-08-25T10:43:10.125Z,19.20
2018-08-25T10:44:16.476Z,18.85
2018-08-25T10:45:22.744Z,18.72
2018-08-25T10:46:29.092Z,18.61
2018-08-25T10:47:36.182Z,18.47
2018-08-25T10:48:42.457Z,18.35
2018-08-25T10:49:48.736Z,18.21
2018-08-25T10:50:55.055Z,18.20
2018-08-25T10:52:01.114Z,17.77
2018-08-25T10:53:07.571Z,17.91
2018-08-25T10:54:14.325Z,17.88
2018-08-25T10:55:20.623Z,17.85
2018-08-25T10:56:26.244Z,17.74
2018-08-25T10:57:32.540Z,17.54
2018-08-25T10:58:38.832Z,17.44
2018-08-25T10:59:45.619Z,17.23
2018-08-25T11:00:52.005Z,17.24
2018-08-25T11:01:58.339Z,17.08
2018-08-25T11:03:04.730Z,17.20
2018-08-25T11:04:11.004Z,17.12
2018-08-25T11:05:17.333Z,17.22
2018-08-25T11:06:23.616Z,17.17
2018-08-25T11:07:30.523Z,17.15
2018-08-25T11:08:36.840Z,17.17
2018-08-25T11:09:43.255Z,17.15
2018-08-25T11:10:49.485Z,17.19
2018-08-25T11:11:55.904Z,17.26
2018-08-25T11:13:02.365Z,17.38
2018-08-25T11:14:08.800Z,17.36
2018-08-25T11:15:15.041Z,17.56
2018-08-25T11:16:21.147Z,17.56
2018-08-25T11:17:27.447Z,17.68
2018-08-25T11:18:33.754Z,17.71
2018-08-25T11:19:39.984Z,17.54
2018-08-25T11:20:46.304Z,17.42
2018-08-25T11:21:52.582Z,17.36
2018-08-25T11:22:58.785Z,17.33
2018-08-25T11:24:05.007Z,17.31
2018-08-25T11:25:11.308Z,17.20
2018-08-25T11:26:17.578Z,17.26
2018-08-25T11:27:23.872Z,17.19
2018-08-25T11:28:30.145Z,17.31
2018-08-25T11:29:36.720Z,17.27
2018-08-25T11:30:43.290Z,17.28
2018-08-25T11:31:49.619Z,17.17
2018-08-25T11:32:55.740Z,17.14
2018-08-25T11:34:02.022Z,17.09
2018-08-25T11:35:08.058Z,17.06
2018-08-25T11:36:15.258Z,17.06
2018-08-25T11:37:22.053Z,17.09
2018-08-25T11:38:28.605Z,17.10
2018-08-25T11:39:34.899Z,17.06
2018-08-25T11:40:41.215Z,16.97
2018-08-25T11:41:47.564Z,17.04
2018-08-25T11:42:54.050Z,16.89
2018-08-25T11:44:00.284Z,16.98
2018-08-25T11:45:06.424Z,17.08
2018-08-25T11:46:12.701Z,17.02
2018-08-25T11:47:18.976Z,17.08
2018-08-25T11:48:25.217Z,16.94
2018-08-25T11:49:31.542Z,16.83
2018-08-25T11:50:37.793Z,16.85
2018-08-25T11:51:44.162Z,16.84
2018-08-25T11:52:50.436Z,16.71
2018-08-25T11:53:57.281Z,16.88
2018-08-25T11:55:03.779Z,16.93
2018-08-25T11:56:10.027Z,16.81
2018-08-25T11:57:16.342Z,16.90
2018-08-25T11:58:22.600Z,16.86
2018-08-25T11:59:28.936Z,16.81
2018-08-25T12:00:34.904Z,16.94
2018-08-25T12:01:40.940Z,17.03
2018-08-25T12:02:47.314Z,17.01
2018-08-25T12:03:53.617Z,17.06
2018-08-25T12:04:59.914Z,16.92
2018-08-25T12:06:05.859Z,17.11
2018-08-25T12:07:12.411Z,17.19
2018-08-25T12:08:18.746Z,17.28
2018-08-25T12:09:25.052Z,17.34
2018-08-25T12:10:31.340Z,17.42
2018-08-25T12:11:38.415Z,17.56
2018-08-25T12:12:44.782Z,17.73
2018-08-25T12:13:51.104Z,17.78
2018-08-25T12:14:57.417Z,17.93
2018-08-25T12:16:03.708Z,18.03
2018-08-25T12:17:09.972Z,18.06
2018-08-25T12:18:16.235Z,18.04
2018-08-25T12:19:22.333Z,18.10
2018-08-25T12:20:28.562Z,18.06
2018-08-25T12:21:34.895Z,18.13
2018-08-25T12:22:41.293Z,18.22
2018-08-25T12:23:47.614Z,18.37
2018-08-25T12:24:53.896Z,18.46
2018-08-25T12:26:00.680Z,18.42
2018-08-25T12:27:06.727Z,18.43
2018-08-25T12:28:12.935Z,18.37
2018-08-25T12:29:19.764Z,18.44
2018-08-25T12:30:26.114Z,18.13
2018-08-25T12:31:32.514Z,18.23
2018-08-25T12:32:38.819Z,18.20
2018-08-25T12:33:45.109Z,18.16
2018-08-25T12:34:51.384Z,18.06
2018-08-25T12:35:57.676Z,18.09
2018-08-25T12:37:04.945Z,18.14
2018-08-25T12:38:11.183Z,18.11
2018-08-25T12:39:17.493Z,18.15
2018-08-25T12:40:24.041Z,18.08
2018-08-25T12:41:30.447Z,18.13
2018-08-25T12:42:36.772Z,17.98
2018-08-25T12:43:43.101Z,18.13
2018-08-25T12:44:49.163Z,18.04
2018-08-25T12:45:55.599Z,18.09
2018-08-25T12:47:01.590Z,17.97
2018-08-25T12:48:07.995Z,17.81
2018-08-25T12:49:14.293Z,17.65
2018-08-25T12:50:20.615Z,17.59
2018-08-25T12:51:26.934Z,17.57
2018-08-25T12:52:33.270Z,17.65
2018-08-25T12:53:39.580Z,17.41
2018-08-25T12:54:45.916Z,17.45
2018-08-25T12:55:52.830Z,17.60
2018-08-25T12:56:59.137Z,17.54
2018-08-25T12:58:04.731Z,17.37
2018-08-25T12:59:11.246Z,17.41
2018-08-25T13:00:17.926Z,17.32
2018-08-25T13:01:24.252Z,17.28
2018-08-25T13:02:30.579Z,17.32
2018-08-25T13:03:36.623Z,17.26
2018-08-25T13:04:42.977Z,17.20
2018-08-25T13:05:49.222Z,17.19
2018-08-25T13:06:55.529Z,17.28
2018-08-25T13:08:01.808Z,17.27
2018-08-25T13:09:07.426Z,17.51
2018-08-25T13:10:13.822Z,17.46
2018-08-25T13:11:20.123Z,17.49
2018-08-25T13:12:26.373Z,17.58
2018-08-25T13:13:32.688Z,17.66
2018-08-25T13:14:39.014Z,17.69
2018-08-25T13:15:45.636Z,17.49
2018-08-25T13:16:52.116Z,17.34
2018-08-25T13:17:58.448Z,17.35
2018-08-25T13:19:04.380Z,17.54
2018-08-25T13:20:10.640Z,17.73
2018-08-25T13:21:16.976Z,17.83
2018-08-25T13:22:24.231Z,17.69
2018-08-25T13:23:33.625Z,17.62
2018-08-25T13:24:41.269Z,17.67
2018-08-25T13:25:50.343Z,17.67
2018-08-25T13:26:58.031Z,17.73
2018-08-25T13:28:04.464Z,17.81
2018-08-25T13:29:10.752Z,17.83
2018-08-25T13:30:17.737Z,17.93
2018-08-25T13:31:25.667Z,17.78
2018-08-25T13:32:33.426Z,17.87
2018-08-25T13:33:41.001Z,17.66
2018-08-25T13:34:49.381Z,17.70
2018-08-25T13:35:58.339Z,17.62
2018-08-25T13:37:06.663Z,17.63
2018-08-25T13:38:15.115Z,17.56
2018-08-25T13:39:23.259Z,17.65
2018-08-25T13:40:34.187Z,17.75
2018-08-25T13:41:41.934Z,17.85
2018-08-25T13:42:50.501Z,17.86
2018-08-25T13:43:59.022Z,17.82
2018-08-25T13:45:07.020Z,17.92
2018-08-25T13:46:14.392Z,17.87
2018-08-25T13:47:21.703Z,17.88
2018-08-25T13:48:31.375Z,17.88
2018-08-25T13:49:38.723Z,17.94
2018-08-25T13:50:45.392Z,18.05
2018-08-25T13:51:52.584Z,18.06
2018-08-25T13:53:01.074Z,18.05
2018-08-25T13:54:09.331Z,18.08
2018-08-25T13:55:17.403Z,18.05
2018-08-25T13:56:24.749Z,18.22
2018-08-25T13:57:33.414Z,18.29
2018-08-25T13:58:40.968Z,18.25
2018-08-25T13:59:50.103Z,18.31
2018-08-25T14:00:57.355Z,18.33
2018-08-25T14:02:05.660Z,18.28
2018-08-25T14:03:13.867Z,18.34
2018-08-25T14:04:23.078Z,18.40
2018-08-25T14:05:30.022Z,18.72
2018-08-25T14:06:39.751Z,18.96
2018-08-25T14:07:51.170Z,19.11
2018-08-25T14:09:01.765Z,18.99
2018-08-25T14:10:11.136Z,18.86
2018-08-25T14:11:19.533Z,19.10
2018-08-25T14:12:28.475Z,19.18
2018-08-25T14:13:35.045Z,19.38
2018-08-25T14:14:42.589Z,19.51
2018-08-25T14:15:51.546Z,19.73
2018-08-25T14:16:58.294Z,19.80